Terminal Aerodrome Forecast
Issued by NWS

Home | Current Version | Previous Version | Text Only | Print | Product List | Glossary On
Versions: 1 2 3 4 5 6 7 8 9 10 11 12
000
FTUS45 KRIW 252332
TAFCPR
TAF
KCPR 252332Z 2600/2624 02012KT P6SM -SHRA VCTS SCT050CB BKN080
     FM260200 36008KT P6SM -SHRA SCT050 BKN070
     FM260600 01006KT P6SM VCSH SCT060 BKN080
     FM261400 19008KT P6SM SCT070 BKN100
     FM262000 15012G20KT P6SM VCTS SCT070CB BKN090=

USA.gov is the U.S. government's official web portal to all federal, state and local government web resources and services.